Messwerte Timmins

Temperatur

Temperatur
°C
1618891200 0.00 0.00 0
1618894800 1.00 1.00
1618898400 2.00 2.00 -5
1618902000 3.00 3.00 -6
1618905600 4.00 4.00 -8
1618909200 5.00 5.00 -9
1618912800 6.00 6.00 -10
1618916400 7.00 7.00 -11
1618920000 8.00 8.00 -11
1618923600 9.00 9.00
1618927200 10.00 10.00
1618930800 11.00 11.00
1618934400 12.00 12.00 -10
1618938000 13.00 13.00 -9
1618941600 14.00 14.00 -9
1618945200 15.00 15.00 -8
1618948800 16.00 16.00 -8
1618952400 17.00 17.00
1618956000 18.00 18.00
1618959600 19.00 19.00 -9
1618963200 20.00 20.00 -9
1618966800 21.00 21.00 -10
1618970400 22.00 22.00 -10
1618974000 23.00 23.00 -10

Aktuellste Messwerte

Wettercharakter
Wetter: bedeckt, etwas Schnee
Temperatur
-10 °C
Feuchtigkeit
85 %
Wind
10 km/hWindrichtung: West
Luftdruck
1018 hPa
Messzeit: 20. April 2021, 23.00Datenquelle: METAR

Weitere Messstationen in der Nähe

Messstation Temperatur Entfernung
Kirkland Lake -9 °C 112 km
Kapuskasing Cda -9 °C 121 km
Kapuskasing -9 °C 122 km
Earlton -9 °C 149 km
Chapleau - 169 km
Rouyn Airport -8 °C 193 km
Sudbury -5 °C 221 km

Wind

Windrichtung Böen Mittelwind
° km/h km/h
1618891200 0.00 23.00 - 0.00 320° 30 15
1618894800 1.00 0.00 - 1.00
1618898400 2.00 1.00 - 2.00 330° 45 25
1618902000 3.00 2.00 - 3.00 320° 35 20
1618905600 4.00 3.00 - 4.00 320° 35 20
1618909200 5.00 4.00 - 5.00 310° 30 20
1618912800 6.00 5.00 - 6.00 310° 35 20
1618916400 7.00 6.00 - 7.00 320° 45 25
1618920000 8.00 7.00 - 8.00 310° 45 30
1618923600 9.00 8.00 - 9.00
1618927200 10.00 9.00 - 10.00 330° 45 30
1618930800 11.00 10.00 - 11.00 310° 35 25
1618934400 12.00 11.00 - 12.00 320° 40 25
1618938000 13.00 12.00 - 13.00 320° 25
1618941600 14.00 13.00 - 14.00 300° 40 30
1618945200 15.00 14.00 - 15.00 330° 45 20
1618948800 16.00 15.00 - 16.00 300° 30 15
1618952400 17.00 16.00 - 17.00
1618956000 18.00 17.00 - 18.00 330° 40 20
1618959600 19.00 18.00 - 19.00 320° 20
1618963200 20.00 19.00 - 20.00 320° 5
1618966800 21.00 20.00 - 21.00 300° 5
1618970400 22.00 21.00 - 22.00 280° 5
1618974000 23.00 22.00 - 23.00 280° 10

Ihre Wetterstation

Fehlt Ihre Wetterstation auf unserem Portal?

Schreiben Sie an network@meteonews.ch

Klima

Wann ist es am wärmsten? Wann regnet es am wenigsten? Unsere Klimadaten geben Auskunft.